Tuesday, January 17, 2017, 3:51 AM EST

KOXB, Ocean City Municipal Airport

Location: Berlin, MD, United States Lat: 38.317
Local Time: 3:51 AM EST ( 8:51 GMT) Lon: -75.117
Time Zone: US/Eastern Elev: 13 ft

Show me the last for .
Show Decoded

2017-01-17 02:53 METAR KOXB 170753Z AUTO 00000KT 10SM BKN018 OVC070 05/03 A3027 RMK AO2 SLP250
                 T00500033 =
2017-01-17 01:53 METAR KOXB 170653Z AUTO 00000KT 10SM OVC017 05/03 A3028 RMK AO2 RAB26E46 SLP253
                 P0000 T00500033 =
2017-01-17 00:53 METAR KOXB 170553Z AUTO 00000KT 10SM OVC019 06/02 A3031 RMK AO2 SLP262 T00560017
                 10056 20050 58020 =
2017-01-16 23:53 METAR KOXB 170453Z AUTO 00000KT 10SM OVC022 06/02 A3033 RMK AO2 SLP269 T00560022
                 400611011 =
2017-01-16 22:53 METAR KOXB 170353Z AUTO 00000KT 10SM OVC025 06/01 A3035 RMK AO2 SLP277 T00560011
                 =
2017-01-16 21:53 METAR KOXB 170253Z AUTO 00000KT 10SM OVC025 06/01 A3037 RMK AO2 SLP282 T00560006
                 58007 =
2017-01-16 20:53 METAR KOXB 170153Z AUTO 00000KT 10SM OVC028 06/00 A3038 RMK AO2 SLP286 T00560000
                 =
2017-01-16 19:53 METAR KOXB 170053Z AUTO 00000KT 10SM OVC029 06/01 A3038 RMK AO2 SLP287 T00560006
                 =
2017-01-16 19:39 METAR KOXB 170039Z AUTO 00000KT 10SM OVC029 05/01 A3038 RMK AO2 T00500006 =
2017-01-16 18:53 METAR KOXB 162353Z AUTO 00000KT 10SM OVC031 05/00 A3039 RMK AO2 SLP289 T00500000
                 10056 20044 58009 =
2017-01-16 17:53 METAR KOXB 162253Z AUTO 00000KT 10SM OVC035 05/M01 A3040 RMK AO2 SLP295
                 T00501011 =
2017-01-16 16:53 METAR KOXB 162153Z AUTO 00000KT 10SM OVC038 04/M02 A3041 RMK AO2 SLP296
                 T00441017 =
2017-01-16 15:53 METAR KOXB 162053Z AUTO 00000KT 10SM BKN043 OVC110 05/M03 A3041 RMK AO2 SLP298
                 T00501028 55010 =
2017-01-16 14:53 METAR KOXB 161953Z AUTO 12005KT 10SM SCT039 OVC110 04/M03 A3040 RMK AO2 SLP295
                 T00441028 =
2017-01-16 13:53 METAR KOXB 161853Z AUTO 10004KT 10SM OVC100 05/M02 A3041 RMK AO2 SLP297
                 T00501022 =
2017-01-16 12:53 METAR KOXB 161753Z AUTO 10005KT 10SM FEW031 OVC110 05/M03 A3044 RMK AO2 SLP308
                 T00501028 10061 21011 57020 =
2017-01-16 11:53 METAR KOXB 161653Z AUTO 08005KT 10SM OVC120 05/M03 A3046 RMK AO2 SLP313
                 T00501028 =
2017-01-16 10:53 METAR KOXB 161553Z AUTO 06005KT 10SM SCT120 05/M02 A3049 RMK AO2 SLP323
                 T00501022 =
2017-01-16 09:53 METAR KOXB 161453Z AUTO VRB03KT 10SM FEW120 04/M01 A3050 RMK AO2 SLP328
                 T00441006 53015 =
2017-01-16 08:53 METAR KOXB 161353Z AUTO 36003KT 10SM CLR 03/00 A3049 RMK AO2 SLP324 T00330000 =
2017-01-16 07:53 METAR KOXB 161253Z AUTO 36004KT 10SM CLR 00/M01 A3046 RMK AO2 SLP315 T00001006 =
2017-01-16 06:53 METAR KOXB 161153Z AUTO 01005KT 10SM CLR M01/M02 A3046 RMK AO2 SLP313 T10111017
                 10033 21011 53005 =
2017-01-16 05:53 METAR KOXB 161053Z AUTO 36003KT 10SM CLR 00/M01 A3045 RMK AO2 SLP312 T00001011 =
2017-01-16 04:53 METAR KOXB 160953Z AUTO 35003KT 10SM CLR 01/00 A3044 RMK AO2 SLP308 T00110000 =
2017-01-16 03:53 METAR KOXB 160853Z AUTO 35004KT 10SM CLR 02/00 A3044 RMK AO2 SLP308 T00170000
                 50005 =

Support USWX by starting your Amazon purchase here.